Address 0x9f9552b1fb4b4a0e8d5e0b61652ddb1d06219f23 1

 
Ad
Ad
Txn Hash Method
Block
From
To
Value [Txn Fee]
0x57c21056da21e9e212560699d12e7c36b12c4bdf478aaefa49db4f434b3d7c19Transfer197459392021-10-02 5:08:4317 days 22 hrs ago0x9f9552b1fb4b4a0e8d5e0b61652ddb1d06219f23OUT 0xc2132d05d31c914a87c6611c10748aeb04b58e8f0 MATIC0.0000482616
0x31ef0d62ea5495f2bd28dfb7049d06c7a15831a05342615e6adb6cbe28b8591dTransfer197458572021-10-02 5:05:5517 days 22 hrs ago0x9f9552b1fb4b4a0e8d5e0b61652ddb1d06219f23OUT 0xc2132d05d31c914a87c6611c10748aeb04b58e8f0 MATIC0.0000630234
0xb470cd50de668d731c0488cef7c7f505cb494e37e9996fb42e83d84609c1afaa0x7c025200197457772021-10-02 5:03:0717 days 22 hrs ago0x9f9552b1fb4b4a0e8d5e0b61652ddb1d06219f23OUT 0x11111112542d85b3ef69ae05771c2dccff4faa260 MATIC0.0001803802
0x0c8d0383c29ca5369410853f2757feccd334be0a26a1a2f8be735d5c99ccfb8eRemove Liquidity...197457032021-10-02 5:00:3517 days 23 hrs ago0x9f9552b1fb4b4a0e8d5e0b61652ddb1d06219f23OUT 0x01c9475dbd36e46d1961572c8de24b74616bae9e0 MATIC0.0002172599
0xbcf50e202e34e80347fda52d2e3678f2b92cc9aaa5dcf17b07def3dc8cde68e70x7c025200197456802021-10-02 4:59:4917 days 23 hrs ago0x9f9552b1fb4b4a0e8d5e0b61652ddb1d06219f23OUT 0xb31d1b1ea48ce4bf10ed697d44b747287e785ad40 MATIC0.0005843929
0x62fa0784277ec449ffc6806d20255bab06d9df871821dbc8f116e293afccdf7cWithdraw197456602021-10-02 4:59:0517 days 23 hrs ago0x9f9552b1fb4b4a0e8d5e0b61652ddb1d06219f23OUT Firebird Finance: MasterChef LP Staking Pool0 MATIC0.0003715127
0x18bfc229b834f4fdfcf192bd7ef7630fd42ebe71e2b66ddbe3db7a00f81246e10x7c025200196666742021-09-30 4:07:5319 days 23 hrs ago0x9f9552b1fb4b4a0e8d5e0b61652ddb1d06219f23OUT 0xb31d1b1ea48ce4bf10ed697d44b747287e785ad40 MATIC0.000789447
0x33e1490931152954fed8089e3dfba350be89dfb3da9373f546f2185ff1389832Approve196665142021-09-30 4:02:2519 days 23 hrs ago0x9f9552b1fb4b4a0e8d5e0b61652ddb1d06219f23OUT Firebird Finance: HOPE Token0 MATIC0.000318448566
0x095666835327fb7265e6412713324ec0aa1866f761675c5a563400ea7ca4d4cdWithdraw196665142021-09-30 4:02:2519 days 23 hrs ago0x9f9552b1fb4b4a0e8d5e0b61652ddb1d06219f23OUT Firebird Finance: MasterChef LP Staking Pool0 MATIC0.001393542
0x4e613348d975b98bd2455b63414ef332768e8a16106f515f413a584e309e66f10x7c025200192940922021-09-20 1:39:4230 days 2 hrs ago0x9f9552b1fb4b4a0e8d5e0b61652ddb1d06219f23OUT 0x6466cdc2615f111dc6dbd0ef6fdd209f5ff8d1840 MATIC0.000628293
0x0261fa9dff6f31d820807ecc0159367238661ae350f34d74d5d962c9e85fb302Withdraw192940762021-09-20 1:39:0030 days 2 hrs ago0x9f9552b1fb4b4a0e8d5e0b61652ddb1d06219f23OUT Firebird Finance: MasterChef LP Staking Pool0 MATIC0.0003828675
0x968cc595ef058d08882d1767e9bfe0e55f071b965986a74f8f50272cc3937d150x7c025200191178272021-09-15 1:15:5135 days 2 hrs ago0x9f9552b1fb4b4a0e8d5e0b61652ddb1d06219f23OUT 0x6466cdc2615f111dc6dbd0ef6fdd209f5ff8d1840 MATIC0.002507676
0xbd09395395b16dd327e7e2d239e561c06e7aa5c4e96b6cd9e0935de5001cc0e7Withdraw191177382021-09-15 1:12:4535 days 2 hrs ago0x9f9552b1fb4b4a0e8d5e0b61652ddb1d06219f23OUT Firebird Finance: MasterChef LP Staking Pool0 MATIC0.0016432005
0x9c9d7ef466d2c385a7278cd31a4a6ea0e3665a4ad3232d00b802056d5638ccf0Swap Exact Token...190434422021-09-13 1:10:1937 days 2 hrs ago0x9f9552b1fb4b4a0e8d5e0b61652ddb1d06219f23OUT 0x6466cdc2615f111dc6dbd0ef6fdd209f5ff8d1840 MATIC0.000413085
0xa1319c08620e17f9b4d8637eab2b21ca959b3539568c6cddf579360ecb8526bfWithdraw190434102021-09-13 1:09:1537 days 2 hrs ago0x9f9552b1fb4b4a0e8d5e0b61652ddb1d06219f23OUT Firebird Finance: MasterChef LP Staking Pool0 MATIC0.00102098
0x26218c6b15e17f74153729a4786def7c8c7aab9e6d6df007d5bdae161f39cb5a0x7c025200189744622021-09-11 1:59:0339 days 2 hrs ago0x9f9552b1fb4b4a0e8d5e0b61652ddb1d06219f23OUT 0x6466cdc2615f111dc6dbd0ef6fdd209f5ff8d1840 MATIC0.0006581475
0xae3bfad61d65b53a1aaa24e8a8e6e7af957b195bd951d66bf75c44f5fe9eec91Withdraw189744422021-09-11 1:58:2339 days 2 hrs ago0x9f9552b1fb4b4a0e8d5e0b61652ddb1d06219f23OUT Firebird Finance: MasterChef LP Staking Pool0 MATIC0.0003828675
0x3352fb056ffd379d43b80ee59896042da06b5dd4cf4800e1a4b5a96acb0558ceSwap Exact Token...189016992021-09-09 1:46:4141 days 2 hrs ago0x9f9552b1fb4b4a0e8d5e0b61652ddb1d06219f23OUT 0x6466cdc2615f111dc6dbd0ef6fdd209f5ff8d1840 MATIC0.000535782
0x148db451e4fcea7ea5c5886258da212b1e0e8acb6520fd17748200913055200aWithdraw189016522021-09-09 1:45:0341 days 2 hrs ago0x9f9552b1fb4b4a0e8d5e0b61652ddb1d06219f23OUT Firebird Finance: MasterChef LP Staking Pool0 MATIC0.00054469
0xb0573eba58759c16198a42ec796447347988fcc114b9a525542553834210a58cSwap Exact Token...188307442021-09-07 1:50:5843 days 2 hrs ago0x9f9552b1fb4b4a0e8d5e0b61652ddb1d06219f23OUT 0x6466cdc2615f111dc6dbd0ef6fdd209f5ff8d1840 MATIC0.0003543618
0x6bb066dbe8d3b6fe817adef34eeb2354a2901bfe7576427e2056e781f4d40108Withdraw188306702021-09-07 1:48:2643 days 2 hrs ago0x9f9552b1fb4b4a0e8d5e0b61652ddb1d06219f23OUT Firebird Finance: MasterChef LP Staking Pool0 MATIC0.0003095885
0x8f7161e62a75f9071e16724e81fc39e4dd5772f1749c774bc7459617816a1a960x7c025200187934592021-09-06 2:03:5844 days 1 hr ago0x9f9552b1fb4b4a0e8d5e0b61652ddb1d06219f23OUT 0x6466cdc2615f111dc6dbd0ef6fdd209f5ff8d1840 MATIC0.0004739812
0xb34adf8dfe41fff4bfa58af7adf77785a07ac12c065fc4517e34844ce3c76a63Deposit187934392021-09-06 2:03:1844 days 1 hr ago0x9f9552b1fb4b4a0e8d5e0b61652ddb1d06219f23OUT Firebird Finance: MasterChef LP Staking Pool0 MATIC0.0003536436
0x5b07bc6bb87e3f07b107ede82fc1730e7efa6bf57a25bc0d3a02a4c130cd42a7Add Liquidity187934072021-09-06 2:02:1044 days 1 hr ago0x9f9552b1fb4b4a0e8d5e0b61652ddb1d06219f23OUT 0x01c9475dbd36e46d1961572c8de24b74616bae9e0 MATIC0.0002777544
0xf713f98dedcb637a15a4539a1c2248944f588f82aa86a8d2ba9ebeb383f08b02Approve187933942021-09-06 2:01:4444 days 1 hr ago0x9f9552b1fb4b4a0e8d5e0b61652ddb1d06219f23OUT USD Coin0 MATIC0.0004101
[ Download CSV Export 
Latest 6 internal transactions
Parent Txn Hash Block From To Value
0x919c2a0a6bcab197ca0bae29f90cf763ac52f6ed3b71ab0f967c59848da4ed62179563032021-08-14 1:20:4367 days 2 hrs ago QuickSwap: Router0x9f9552b1fb4b4a0e8d5e0b61652ddb1d06219f234,821.91985213710441511 MATIC
0xfec72e4fd0e56e784fb41f7bc94a2e06e8f537aa21a7e286de1ea5814ff22ca0171498682021-07-22 16:09:1089 days 11 hrs ago 0x0f85a912448279111694f4ba4f85dc641c54b5940x9f9552b1fb4b4a0e8d5e0b61652ddb1d06219f235.427818052081468396 MATIC
0x5c89fa2228a2a6c72e11a96e356f3f2fd6e569517e8fb03aeba94aac763012de166605182021-07-09 4:16:48102 days 23 hrs ago QuickSwap: Router0x9f9552b1fb4b4a0e8d5e0b61652ddb1d06219f230.038085644563498835 MATIC
0x62d1ab921cd4a8ec0b5fba890a6e197e6614cc427efd7fcda7fa15f505343561166602092021-07-09 4:02:16102 days 23 hrs ago QuickSwap: Router0x9f9552b1fb4b4a0e8d5e0b61652ddb1d06219f231.167121484001679026 MATIC
0x27bcfec1e68899bb06a2af7be270d5cae0e172cb024bc44612a6a55d03fdc7d6161198842021-06-25 4:30:39116 days 23 hrs ago 0x0f85a912448279111694f4ba4f85dc641c54b5940x9f9552b1fb4b4a0e8d5e0b61652ddb1d06219f230.509544074579071965 MATIC
0x339c97ca5c80eb913cd7555394bff989a32e5780b84afd91c7b04504d396e2a8157168842021-06-14 19:32:23127 days 8 hrs ago 0x0f85a912448279111694f4ba4f85dc641c54b5940x9f9552b1fb4b4a0e8d5e0b61652ddb1d06219f230.000001477065914252 MATIC
[ Download CSV Export 
Loading

Contract Name:
0 MATIC

Compiler Version
0

Optimization Enabled:
0 MATIC

Other Settings:
-NA-
Block Transaction Gas Used Reward
Age Block Fee Address BC Fee Address Voting Power Jailed Incoming
Block Uncle Number Difficulty Gas Used Reward
Loading
Loading
Make sure to use the "Vote Down" button for any spammy posts, and the "Vote Up" for interesting conversations.